createdAt,value
2022-12-25T00:00:01.027Z,4.81
2022-12-25T00:02:30.657Z,4.94
2022-12-25T00:04:58.902Z,5.03
2022-12-25T00:07:28.479Z,5.08
2022-12-25T00:09:56.505Z,5.15
2022-12-25T00:12:24.773Z,5.18
2022-12-25T00:14:52.857Z,5.29
2022-12-25T00:17:21.004Z,5.32
2022-12-25T00:19:49.154Z,5.41
2022-12-25T00:22:17.360Z,5.48
2022-12-25T00:24:48.573Z,5.50
2022-12-25T00:27:16.816Z,5.58
2022-12-25T00:29:45.130Z,5.77
2022-12-25T00:32:13.189Z,5.82
2022-12-25T00:34:41.327Z,5.86
2022-12-25T00:37:09.581Z,5.94
2022-12-25T00:39:38.079Z,6.06
2022-12-25T00:42:19.847Z,6.16
2022-12-25T00:44:48.640Z,6.21
2022-12-25T00:47:18.102Z,6.23
2022-12-25T00:49:46.448Z,6.30
2022-12-25T00:52:16.806Z,6.36
2022-12-25T00:54:44.895Z,6.40
2022-12-25T00:57:14.334Z,6.45
2022-12-25T00:59:42.586Z,6.50
2022-12-25T01:02:26.235Z,6.58
2022-12-25T01:04:56.197Z,6.73
2022-12-25T01:07:25.905Z,6.77
2022-12-25T01:10:11.270Z,6.77
2022-12-25T01:12:43.544Z,6.80
2022-12-25T01:15:14.308Z,6.81
2022-12-25T01:17:43.227Z,6.84
2022-12-25T01:20:12.670Z,6.87
2022-12-25T01:22:41.030Z,6.90
2022-12-25T01:25:10.680Z,6.97
2022-12-25T01:27:40.276Z,7.02
2022-12-25T01:30:09.490Z,7.08
2022-12-25T01:32:37.611Z,7.13
2022-12-25T01:35:06.453Z,7.12
2022-12-25T01:37:34.509Z,7.14
2022-12-25T01:40:02.693Z,7.16
2022-12-25T01:42:30.816Z,7.21
2022-12-25T01:45:33.127Z,7.25
2022-12-25T01:48:03.682Z,7.25
2022-12-25T01:50:32.328Z,7.28
2022-12-25T01:53:00.654Z,7.32
2022-12-25T01:55:29.402Z,7.34
2022-12-25T01:57:57.995Z,7.38
2022-12-25T02:00:26.182Z,7.37
2022-12-25T02:02:55.802Z,7.42
2022-12-25T02:05:28.151Z,7.41
2022-12-25T02:07:57.337Z,7.41
2022-12-25T02:10:25.436Z,7.44
2022-12-25T02:12:54.385Z,7.43
2022-12-25T02:15:28.268Z,7.42
2022-12-25T02:18:02.870Z,7.45
2022-12-25T02:21:06.375Z,7.51
2022-12-25T02:23:59.187Z,7.48
2022-12-25T02:26:50.166Z,7.47
2022-12-25T02:29:26.266Z,7.51
2022-12-25T02:32:00.470Z,7.51
2022-12-25T02:34:37.182Z,7.51
2022-12-25T02:37:10.230Z,7.56
2022-12-25T02:39:57.923Z,7.56
2022-12-25T02:42:55.646Z,7.56
2022-12-25T02:45:48.868Z,7.54
2022-12-25T02:48:37.323Z,7.56
2022-12-25T02:51:26.555Z,7.59
2022-12-25T02:54:15.138Z,7.61
2022-12-25T02:57:05.099Z,7.59
2022-12-25T02:59:54.700Z,7.60
2022-12-25T03:02:42.675Z,7.59
2022-12-25T03:05:32.340Z,7.59
2022-12-25T03:08:04.324Z,7.59
2022-12-25T03:10:51.726Z,7.62
2022-12-25T03:13:23.340Z,7.62
2022-12-25T03:16:09.239Z,7.59
2022-12-25T03:18:39.137Z,7.56
2022-12-25T03:21:25.475Z,7.58
2022-12-25T03:24:14.771Z,7.55
2022-12-25T03:26:58.967Z,7.56
2022-12-25T03:29:48.928Z,7.56
2022-12-25T03:32:25.680Z,7.56
2022-12-25T03:35:20.217Z,7.55
2022-12-25T03:38:16.628Z,7.55
2022-12-25T03:41:14.581Z,7.50
2022-12-25T03:44:08.436Z,7.48
2022-12-25T03:46:59.550Z,7.46
2022-12-25T03:49:51.531Z,7.41
2022-12-25T03:52:39.362Z,7.36
2022-12-25T03:55:29.681Z,7.31
2022-12-25T03:58:15.387Z,7.28
2022-12-25T04:01:01.333Z,7.26
2022-12-25T04:03:46.683Z,7.23
2022-12-25T04:06:32.604Z,7.21
2022-12-25T04:09:19.448Z,7.18
2022-12-25T04:12:05.226Z,7.20
2022-12-25T04:14:51.256Z,7.17
2022-12-25T04:17:36.499Z,7.15
2022-12-25T04:20:22.922Z,7.14
2022-12-25T04:23:08.694Z,7.14
2022-12-25T04:25:55.712Z,7.15
2022-12-25T04:28:37.715Z,7.13
2022-12-25T04:31:23.417Z,7.15
2022-12-25T04:34:08.091Z,7.17
2022-12-25T04:36:36.357Z,7.18
2022-12-25T04:39:04.515Z,7.21
2022-12-25T04:41:34.801Z,7.22
2022-12-25T04:44:03.181Z,7.21
2022-12-25T04:46:31.516Z,7.19
2022-12-25T04:48:59.803Z,7.18
2022-12-25T04:51:27.940Z,7.20
2022-12-25T04:53:56.301Z,7.22
2022-12-25T04:56:24.588Z,7.23
2022-12-25T04:58:54.029Z,7.22
2022-12-25T05:01:22.255Z,7.19
2022-12-25T05:03:50.604Z,7.21
2022-12-25T05:06:18.810Z,7.20
2022-12-25T05:08:46.908Z,7.20
2022-12-25T05:11:16.861Z,7.15
2022-12-25T05:13:45.176Z,7.19
2022-12-25T05:16:16.857Z,7.15
2022-12-25T05:18:45.528Z,7.12
2022-12-25T05:21:14.481Z,7.06
2022-12-25T05:23:48.678Z,7.08
2022-12-25T05:26:19.029Z,7.04
2022-12-25T05:28:47.936Z,7.07
2022-12-25T05:31:17.528Z,7.07
2022-12-25T05:33:45.829Z,6.99
2022-12-25T05:36:14.454Z,7.04
2022-12-25T05:38:42.772Z,6.99
2022-12-25T05:41:11.094Z,6.97
2022-12-25T05:43:39.311Z,6.99
2022-12-25T05:46:11.476Z,6.91
2022-12-25T05:48:41.162Z,6.89
2022-12-25T05:51:12.553Z,6.84
2022-12-25T05:53:41.775Z,6.76
2022-12-25T05:56:10.805Z,6.72
2022-12-25T05:58:40.828Z,6.69
2022-12-25T06:01:13.513Z,6.66
2022-12-25T06:03:43.391Z,6.64
2022-12-25T06:06:12.652Z,6.58
2022-12-25T06:08:41.552Z,6.57
2022-12-25T06:11:11.082Z,6.61
2022-12-25T06:13:39.284Z,6.62
2022-12-25T06:16:08.652Z,6.56
2022-12-25T06:18:37.538Z,6.51
2022-12-25T06:21:09.763Z,6.55
2022-12-25T06:23:38.423Z,6.52
2022-12-25T06:26:07.922Z,6.52
2022-12-25T06:28:36.846Z,6.53
2022-12-25T06:31:07.890Z,6.57
2022-12-25T06:33:36.538Z,6.63
2022-12-25T06:36:12.241Z,6.52
2022-12-25T06:38:40.925Z,6.51
2022-12-25T06:41:10.906Z,6.49
2022-12-25T06:43:39.811Z,6.51
2022-12-25T06:46:09.952Z,6.54
2022-12-25T06:48:39.678Z,6.70
2022-12-25T06:51:09.809Z,6.64
2022-12-25T06:53:40.315Z,6.74
2022-12-25T06:56:11.108Z,6.75
2022-12-25T06:58:39.337Z,6.75
2022-12-25T07:01:15.966Z,6.81
2022-12-25T07:03:46.023Z,6.81
2022-12-25T07:06:16.233Z,6.86
2022-12-25T07:08:44.614Z,6.87
2022-12-25T07:11:12.941Z,6.89
2022-12-25T07:13:41.010Z,6.90
2022-12-25T07:16:09.737Z,6.98
2022-12-25T07:18:38.052Z,7.05
2022-12-25T07:21:10.612Z,7.11
2022-12-25T07:23:40.535Z,7.07
2022-12-25T07:26:10.289Z,7.14
2022-12-25T07:28:38.579Z,7.17
2022-12-25T07:31:08.994Z,7.16
2022-12-25T07:33:37.319Z,7.21
2022-12-25T07:36:06.446Z,7.20
2022-12-25T07:38:34.926Z,7.19
2022-12-25T07:41:05.085Z,7.20
2022-12-25T07:43:33.301Z,7.19
2022-12-25T07:46:01.923Z,7.19
2022-12-25T07:48:30.733Z,7.22
2022-12-25T07:50:59.917Z,7.26
2022-12-25T07:53:28.323Z,7.24
2022-12-25T07:56:00.896Z,7.26
2022-12-25T07:58:31.526Z,7.30
2022-12-25T08:01:04.930Z,7.35
2022-12-25T08:03:33.388Z,7.33
2022-12-25T08:06:02.348Z,7.40
2022-12-25T08:08:31.038Z,7.35
2022-12-25T08:10:59.341Z,7.39
2022-12-25T08:13:28.213Z,7.38
2022-12-25T08:16:00.645Z,7.41
2022-12-25T08:18:30.394Z,7.46
2022-12-25T08:21:03.009Z,7.51
2022-12-25T08:23:31.112Z,7.48
2022-12-25T08:26:05.029Z,7.47
2022-12-25T08:28:37.329Z,7.51
2022-12-25T08:31:12.370Z,7.52
2022-12-25T08:33:40.558Z,7.49
2022-12-25T08:36:10.962Z,7.50
2022-12-25T08:38:39.880Z,7.49
2022-12-25T08:41:08.616Z,7.49
2022-12-25T08:43:37.211Z,7.54
2022-12-25T08:46:06.106Z,7.55
2022-12-25T08:48:36.329Z,7.55
2022-12-25T08:51:05.867Z,7.60
2022-12-25T08:53:33.930Z,7.60
2022-12-25T08:56:04.585Z,7.59
2022-12-25T08:58:33.192Z,7.60
2022-12-25T09:01:01.994Z,7.65
2022-12-25T09:03:32.211Z,7.76
2022-12-25T09:06:06.297Z,7.74
2022-12-25T09:08:34.814Z,7.74
2022-12-25T09:11:03.967Z,7.80
2022-12-25T09:13:32.188Z,7.74
2022-12-25T09:16:00.784Z,7.75
2022-12-25T09:18:31.348Z,7.75
2022-12-25T09:21:00.841Z,7.75
2022-12-25T09:23:30.773Z,7.73
2022-12-25T09:26:00.482Z,7.74
2022-12-25T09:28:28.716Z,7.74
2022-12-25T09:30:57.096Z,7.77
2022-12-25T09:33:25.577Z,7.77
2022-12-25T09:35:57.832Z,7.81
2022-12-25T09:38:26.487Z,7.82
2022-12-25T09:41:02.769Z,7.80
2022-12-25T09:43:35.017Z,7.82
2022-12-25T09:46:05.528Z,7.82
2022-12-25T09:48:37.153Z,7.81
2022-12-25T09:51:11.394Z,7.83
2022-12-25T09:53:41.750Z,7.82
2022-12-25T09:56:15.153Z,7.82
2022-12-25T09:58:43.534Z,7.91
2022-12-25T10:01:22.669Z,7.92
2022-12-25T10:04:07.663Z,7.87
2022-12-25T10:06:43.984Z,7.88
2022-12-25T10:09:30.921Z,7.90
2022-12-25T10:12:23.993Z,7.89
2022-12-25T10:15:05.529Z,7.91
2022-12-25T10:17:45.804Z,7.92
2022-12-25T10:20:23.008Z,7.94
2022-12-25T10:22:54.394Z,7.98
2022-12-25T10:25:25.514Z,8.01
2022-12-25T10:28:00.808Z,8.05
2022-12-25T10:30:30.851Z,8.06
2022-12-25T10:32:59.992Z,8.07
2022-12-25T10:35:31.514Z,8.06
2022-12-25T10:38:02.554Z,8.08
2022-12-25T10:40:38.226Z,8.09
2022-12-25T10:43:14.412Z,8.10
2022-12-25T10:45:47.191Z,8.10
2022-12-25T10:48:18.770Z,8.13
2022-12-25T10:50:47.136Z,8.14
2022-12-25T10:53:21.266Z,8.15
2022-12-25T10:56:00.154Z,8.15
2022-12-25T10:58:30.470Z,8.17
2022-12-25T11:01:02.366Z,8.15
2022-12-25T11:03:34.125Z,8.17
2022-12-25T11:06:03.241Z,8.16
2022-12-25T11:08:34.848Z,8.17
2022-12-25T11:11:06.502Z,8.18
2022-12-25T11:13:38.411Z,8.19
2022-12-25T11:16:10.709Z,8.20
2022-12-25T11:18:46.776Z,8.19
2022-12-25T11:21:19.675Z,8.20
2022-12-25T11:23:50.823Z,8.22
2022-12-25T11:26:19.882Z,8.22
2022-12-25T11:28:52.406Z,8.27
2022-12-25T11:31:23.304Z,8.27
2022-12-25T11:33:55.688Z,8.25
2022-12-25T11:36:31.062Z,8.23
2022-12-25T11:39:02.699Z,8.20
2022-12-25T11:41:35.133Z,8.25
2022-12-25T11:44:09.753Z,8.29
2022-12-25T11:46:46.200Z,8.28
2022-12-25T11:49:19.906Z,8.28
2022-12-25T11:51:53.531Z,8.23
2022-12-25T11:54:27.763Z,8.25
2022-12-25T11:56:58.702Z,8.30
2022-12-25T11:59:34.183Z,8.29
2022-12-25T12:02:14.880Z,8.34
2022-12-25T12:04:48.866Z,8.35
2022-12-25T12:07:24.585Z,8.40
2022-12-25T12:10:03.905Z,8.35
2022-12-25T12:12:48.292Z,8.29
2022-12-25T12:15:27.566Z,8.32
2022-12-25T12:17:55.850Z,8.26
2022-12-25T12:20:32.681Z,8.26
2022-12-25T12:23:03.045Z,8.29
2022-12-25T12:25:32.016Z,8.38
2022-12-25T12:28:05.542Z,8.32
2022-12-25T12:30:36.427Z,8.38
2022-12-25T12:33:06.790Z,8.44
2022-12-25T12:35:40.971Z,8.48
2022-12-25T12:38:13.992Z,8.47
2022-12-25T12:40:44.310Z,8.46
2022-12-25T12:43:29.628Z,8.49
2022-12-25T12:46:05.547Z,8.51
2022-12-25T12:48:41.439Z,8.45
2022-12-25T12:51:11.423Z,8.41
2022-12-25T12:53:40.588Z,8.38
2022-12-25T12:56:14.947Z,8.44
2022-12-25T12:58:48.614Z,8.40
2022-12-25T13:01:46.414Z,8.48
2022-12-25T13:04:45.366Z,8.49
2022-12-25T13:07:32.190Z,8.49
2022-12-25T13:10:11.777Z,8.46
2022-12-25T13:12:40.035Z,8.53
2022-12-25T13:15:14.039Z,8.50
2022-12-25T13:17:48.121Z,8.48
2022-12-25T13:20:23.875Z,8.52
2022-12-25T13:22:53.051Z,8.53
2022-12-25T13:25:23.683Z,8.57
2022-12-25T13:27:59.644Z,8.60
2022-12-25T13:30:28.222Z,8.59
2022-12-25T13:33:00.204Z,8.56
2022-12-25T13:35:28.881Z,8.57
2022-12-25T13:37:57.808Z,8.52
2022-12-25T13:40:28.551Z,8.57
2022-12-25T13:42:58.853Z,8.58
2022-12-25T13:45:28.769Z,8.55
2022-12-25T13:47:58.702Z,8.59
2022-12-25T13:50:31.287Z,8.57
2022-12-25T13:53:12.207Z,8.58
2022-12-25T13:55:41.313Z,8.60
2022-12-25T13:58:19.698Z,8.60
2022-12-25T14:00:50.605Z,8.61
2022-12-25T14:03:24.122Z,8.66
2022-12-25T14:05:58.459Z,8.66
2022-12-25T14:08:29.328Z,8.65
2022-12-25T14:10:58.226Z,8.72
2022-12-25T14:13:29.521Z,8.68
2022-12-25T14:15:58.958Z,8.72
2022-12-25T14:18:29.672Z,8.73
2022-12-25T14:21:00.917Z,8.69
2022-12-25T14:23:35.028Z,8.68
2022-12-25T14:26:03.331Z,8.68
2022-12-25T14:28:34.608Z,8.71
2022-12-25T14:31:03.910Z,8.71
2022-12-25T14:33:39.497Z,8.68
2022-12-25T14:36:08.669Z,8.74
2022-12-25T14:38:36.761Z,8.72
2022-12-25T14:41:07.672Z,8.75
2022-12-25T14:43:36.536Z,8.74
2022-12-25T14:46:07.311Z,8.76
2022-12-25T14:48:36.909Z,8.68
2022-12-25T14:51:08.384Z,8.70
2022-12-25T14:53:39.754Z,8.69
2022-12-25T14:56:09.724Z,8.69
2022-12-25T14:58:43.458Z,8.68
2022-12-25T15:01:22.376Z,8.68
2022-12-25T15:03:52.389Z,8.67
2022-12-25T15:06:24.843Z,8.68
2022-12-25T15:08:58.189Z,8.67
2022-12-25T15:11:26.532Z,8.67
2022-12-25T15:13:54.831Z,8.69
2022-12-25T15:16:25.663Z,8.68
2022-12-25T15:18:55.895Z,8.73
2022-12-25T15:21:27.933Z,8.70
2022-12-25T15:23:57.848Z,8.70
2022-12-25T15:26:27.660Z,8.69
2022-12-25T15:28:55.979Z,8.68
2022-12-25T15:31:27.679Z,8.68
2022-12-25T15:33:58.777Z,8.68
2022-12-25T15:36:27.787Z,8.68
2022-12-25T15:38:56.639Z,8.69
2022-12-25T15:41:46.097Z,8.68
2022-12-25T15:44:15.357Z,8.67
2022-12-25T15:46:43.857Z,8.67
2022-12-25T15:49:14.473Z,8.67
2022-12-25T15:51:43.815Z,8.67
2022-12-25T15:54:12.298Z,8.66
2022-12-25T15:56:43.107Z,8.64
2022-12-25T15:59:13.157Z,8.61
2022-12-25T16:01:44.967Z,8.60
2022-12-25T16:04:14.693Z,8.60
2022-12-25T16:06:42.791Z,8.59
2022-12-25T16:09:12.231Z,8.57
2022-12-25T16:11:40.680Z,8.59
2022-12-25T16:14:09.171Z,8.57
2022-12-25T16:16:37.785Z,8.56
2022-12-25T16:19:06.499Z,8.55
2022-12-25T16:21:40.485Z,8.54
2022-12-25T16:24:08.947Z,8.53
2022-12-25T16:26:37.265Z,8.51
2022-12-25T16:29:07.446Z,8.52
2022-12-25T16:31:36.635Z,8.51
2022-12-25T16:34:04.911Z,8.50
2022-12-25T16:36:33.249Z,8.49
2022-12-25T16:39:03.130Z,8.50
2022-12-25T16:41:32.613Z,8.48
2022-12-25T16:44:09.034Z,8.52
2022-12-25T16:46:38.662Z,8.40
2022-12-25T16:49:06.879Z,8.39
2022-12-25T16:51:35.009Z,8.44
2022-12-25T16:54:04.549Z,8.41
2022-12-25T16:56:32.656Z,8.41
2022-12-25T16:59:01.125Z,8.39
2022-12-25T17:01:29.646Z,8.37
2022-12-25T17:04:01.517Z,8.38
2022-12-25T17:06:30.376Z,8.43
2022-12-25T17:09:02.342Z,8.42
2022-12-25T17:11:32.830Z,8.42
2022-12-25T17:14:04.831Z,8.42
2022-12-25T17:16:35.368Z,8.41
2022-12-25T17:19:05.431Z,8.34
2022-12-25T17:21:34.346Z,8.27
2022-12-25T17:24:04.245Z,8.25
2022-12-25T17:26:34.033Z,8.19
2022-12-25T17:29:02.439Z,8.26
2022-12-25T17:31:31.083Z,8.25
2022-12-25T17:34:01.670Z,8.26
2022-12-25T17:36:30.335Z,8.26
2022-12-25T17:39:00.174Z,8.27
2022-12-25T17:41:28.354Z,8.31
2022-12-25T17:43:58.105Z,8.33
2022-12-25T17:46:28.551Z,8.34
2022-12-25T17:48:59.816Z,8.35
2022-12-25T17:51:30.036Z,8.36
2022-12-25T17:54:03.368Z,8.36
2022-12-25T17:56:32.168Z,8.37
2022-12-25T17:59:06.880Z,8.40
2022-12-25T18:01:36.625Z,8.39
2022-12-25T18:04:05.427Z,8.41
2022-12-25T18:06:35.994Z,8.40
2022-12-25T18:09:06.063Z,8.40
2022-12-25T18:11:37.028Z,8.41
2022-12-25T18:14:10.886Z,8.40
2022-12-25T18:16:42.129Z,8.43
2022-12-25T18:19:11.027Z,8.42
2022-12-25T18:21:39.584Z,8.43
2022-12-25T18:24:09.629Z,8.44
2022-12-25T18:26:38.186Z,8.45
2022-12-25T18:29:08.317Z,8.45
2022-12-25T18:31:36.978Z,8.41
2022-12-25T18:34:05.423Z,8.46
2022-12-25T18:36:33.628Z,8.46
2022-12-25T18:39:01.961Z,8.47
2022-12-25T18:41:30.703Z,8.49
2022-12-25T18:44:00.931Z,8.46
2022-12-25T18:46:30.522Z,8.48
2022-12-25T18:48:58.646Z,8.48
2022-12-25T18:51:33.127Z,8.50
2022-12-25T18:54:05.106Z,8.50
2022-12-25T18:56:33.603Z,8.50
2022-12-25T18:59:01.696Z,8.48
2022-12-25T19:01:31.393Z,8.50
2022-12-25T19:04:04.995Z,8.48
2022-12-25T19:06:34.300Z,8.49
2022-12-25T19:09:09.426Z,8.48
2022-12-25T19:11:44.005Z,8.48
2022-12-25T19:14:15.897Z,8.48
2022-12-25T19:16:45.542Z,8.48
2022-12-25T19:19:14.913Z,8.46
2022-12-25T19:21:43.294Z,8.49
2022-12-25T19:24:11.537Z,8.50
2022-12-25T19:26:39.692Z,8.50
2022-12-25T19:29:07.741Z,8.50
2022-12-25T19:31:37.191Z,8.49
2022-12-25T19:34:06.783Z,8.50
2022-12-25T19:36:35.329Z,8.50
2022-12-25T19:39:06.670Z,8.50
2022-12-25T19:41:34.755Z,8.45
2022-12-25T19:44:03.062Z,8.41
2022-12-25T19:46:33.998Z,8.42
2022-12-25T19:49:04.464Z,8.45
2022-12-25T19:51:36.384Z,8.45
2022-12-25T19:54:05.654Z,8.45
2022-12-25T19:56:34.734Z,8.46
2022-12-25T19:59:02.989Z,8.44
2022-12-25T20:01:31.540Z,8.43
2022-12-25T20:03:59.873Z,8.41
2022-12-25T20:06:30.491Z,8.42
2022-12-25T20:09:02.173Z,8.39
2022-12-25T20:11:32.247Z,8.38
2022-12-25T20:14:00.496Z,8.37
2022-12-25T20:16:28.729Z,8.40
2022-12-25T20:18:58.076Z,8.38
2022-12-25T20:21:27.694Z,8.36
2022-12-25T20:23:56.135Z,8.39
2022-12-25T20:26:29.769Z,8.40
2022-12-25T20:28:58.230Z,8.40
2022-12-25T20:31:28.361Z,8.39
2022-12-25T20:33:57.253Z,8.39
2022-12-25T20:36:28.529Z,8.39
2022-12-25T20:39:00.909Z,8.39
2022-12-25T20:41:30.602Z,8.38
2022-12-25T20:43:58.897Z,8.37
2022-12-25T20:46:28.320Z,8.37
2022-12-25T20:48:56.634Z,8.37
2022-12-25T20:51:26.901Z,8.34
2022-12-25T20:53:55.863Z,8.35
2022-12-25T20:56:26.315Z,8.35
2022-12-25T20:58:57.159Z,8.34
2022-12-25T21:01:25.701Z,8.35
2022-12-25T21:03:57.191Z,8.34
2022-12-25T21:06:25.465Z,8.28
2022-12-25T21:08:53.499Z,8.29
2022-12-25T21:11:21.701Z,8.29
2022-12-25T21:13:50.629Z,8.31
2022-12-25T21:16:22.763Z,8.29
2022-12-25T21:18:53.129Z,8.29
2022-12-25T21:21:22.365Z,8.32
2022-12-25T21:23:50.583Z,8.32
2022-12-25T21:26:23.373Z,8.24
2022-12-25T21:28:53.599Z,8.14
2022-12-25T21:31:23.546Z,8.15
2022-12-25T21:33:54.081Z,8.22
2022-12-25T21:36:26.829Z,8.23
2022-12-25T21:38:55.954Z,8.23
2022-12-25T21:41:24.531Z,8.23
2022-12-25T21:43:52.964Z,8.24
2022-12-25T21:46:23.136Z,8.23
2022-12-25T21:48:51.373Z,8.28
2022-12-25T21:51:39.106Z,8.26
2022-12-25T21:54:08.267Z,8.28
2022-12-25T21:56:44.159Z,8.30
2022-12-25T21:59:15.245Z,8.32
2022-12-25T22:01:46.085Z,8.30
2022-12-25T22:04:16.139Z,8.33
2022-12-25T22:07:02.082Z,8.29
2022-12-25T22:09:30.721Z,8.31
2022-12-25T22:12:16.425Z,8.31
2022-12-25T22:14:54.781Z,8.33
2022-12-25T22:17:44.990Z,8.31
2022-12-25T22:20:15.674Z,8.33
2022-12-25T22:22:44.128Z,8.30
2022-12-25T22:25:15.774Z,8.32
2022-12-25T22:27:45.520Z,8.32
2022-12-25T22:30:15.944Z,8.31
2022-12-25T22:32:46.409Z,8.34
2022-12-25T22:35:17.663Z,8.32
2022-12-25T22:37:45.975Z,8.34
2022-12-25T22:40:16.619Z,8.36
2022-12-25T22:42:45.060Z,8.36
2022-12-25T22:45:13.288Z,8.37
2022-12-25T22:47:41.651Z,8.34
2022-12-25T22:50:12.928Z,8.36
2022-12-25T22:52:41.443Z,8.39
2022-12-25T22:55:10.805Z,8.36
2022-12-25T22:57:38.934Z,8.37
2022-12-25T23:00:09.177Z,8.35
2022-12-25T23:02:37.514Z,8.36
2022-12-25T23:05:06.422Z,8.36
2022-12-25T23:07:35.969Z,8.37
2022-12-25T23:10:04.513Z,8.35
2022-12-25T23:12:50.292Z,8.36
2022-12-25T23:15:18.482Z,8.33
2022-12-25T23:18:04.497Z,8.36
2022-12-25T23:20:51.072Z,8.35
2022-12-25T23:23:37.798Z,8.37
2022-12-25T23:26:09.584Z,8.37
2022-12-25T23:29:00.168Z,8.36
2022-12-25T23:31:30.838Z,8.37
2022-12-25T23:33:59.253Z,8.35
2022-12-25T23:36:27.365Z,8.32
2022-12-25T23:38:58.297Z,8.32
2022-12-25T23:41:29.831Z,8.32
2022-12-25T23:44:00.400Z,8.32
2022-12-25T23:46:28.519Z,8.35
2022-12-25T23:48:56.689Z,8.36
2022-12-25T23:51:24.776Z,8.36
2022-12-25T23:53:52.859Z,8.39
2022-12-25T23:56:22.649Z,8.39
2022-12-25T23:58:51.975Z,8.38
